Time;durP1;ratioP1;P1;durP2;ratioP2;P2;SDS_P1;SDS_P2;PMS_P1;PMS_P2;Temp;Humidity;BMP_temperature;BMP_pressure;BME280_temperature;BME280_humidity;BME280_pressure;Samples;Min_cycle;Max_cycle;Signal;HPM_P1;HPM_P2
2022/12/27 00:01:09;;;;;;;3.80;1.57;;;;;;;;;;5009939;28;20207;-88
2022/12/27 00:03:37;;;;;;;9.13;3.37;;;;;;;;;;4999951;28;20204;-87
2022/12/27 00:06:07;;;;;;;4.00;1.83;;;;;;;;;;5003989;28;20266;-88
2022/12/27 00:08:35;;;;;;;10.13;3.37;;;;;;;;;;5011187;28;20244;-88
2022/12/27 00:11:07;;;;;;;7.73;2.60;;;;;;;;;;5022791;28;20215;-88
2022/12/27 00:13:36;;;;;;;5.00;2.03;;;;;;;;;;5018756;28;20254;-88
2022/12/27 00:16:07;;;;;;;5.87;2.17;;;;;;;;;;5006562;28;20199;-88
2022/12/27 00:18:35;;;;;;;8.87;3.17;;;;;;;;;;5002631;28;20211;-88
2022/12/27 00:21:05;;;;;;;8.60;3.30;;;;;;;;;;4996925;28;20231;-88
2022/12/27 00:23:34;;;;;;;8.33;3.10;;;;;;;;;;5013648;28;20253;-88
2022/12/27 00:26:02;;;;;;;5.87;2.63;;;;;;;;;;4994362;28;20200;-88
2022/12/27 00:28:31;;;;;;;9.77;3.80;;;;;;;;;;4991727;28;20208;-88
2022/12/27 00:31:00;;;;;;;9.90;3.53;;;;;;;;;;5003503;28;20194;-88
2022/12/27 00:33:31;;;;;;;5.27;2.30;;;;;;;;;;5013846;28;20223;-88
2022/12/27 00:36:00;;;;;;;4.00;1.83;;;;;;;;;;5020621;28;20223;-88
2022/12/27 00:38:29;;;;;;;3.70;2.47;;;;;;;;;;5016569;28;20210;-88
2022/12/27 00:40:57;;;;;;;9.37;2.73;;;;;;;;;;5014571;28;20210;-88
2022/12/27 00:43:25;;;;;;;7.47;3.53;;;;;;;;;;4997446;28;20226;-88
2022/12/27 00:45:54;;;;;;;11.57;2.90;;;;;;;;;;5010613;28;20202;-88
2022/12/27 00:48:22;;;;;;;8.00;3.13;;;;;;;;;;4997310;28;20204;-88
2022/12/27 00:50:57;;;;;;;5.27;2.10;;;;;;;;;;4997098;28;20211;-88
2022/12/27 00:53:26;;;;;;;4.27;2.10;;;;;;;;;;4997642;28;20206;-88
2022/12/27 00:55:54;;;;;;;4.40;2.13;;;;;;;;;;4983943;28;20203;-88
2022/12/27 00:58:23;;;;;;;1.33;1.23;;;;;;;;;;5024369;28;20199;-88
2022/12/27 01:00:51;;;;;;;5.93;2.07;;;;;;;;;;5016096;28;20226;-88
2022/12/27 01:03:20;;;;;;;7.63;2.53;;;;;;;;;;5002414;28;20236;-88
2022/12/27 01:05:48;;;;;;;1.90;1.50;;;;;;;;;;5025685;28;20196;-88
2022/12/27 01:08:18;;;;;;;8.33;1.67;;;;;;;;;;5008482;28;20195;-88
2022/12/27 01:10:47;;;;;;;3.00;1.57;;;;;;;;;;5010416;28;20211;-88
2022/12/27 01:13:15;;;;;;;8.23;2.80;;;;;;;;;;5009284;28;20198;-88
2022/12/27 01:15:44;;;;;;;6.40;1.80;;;;;;;;;;4997243;28;20230;-87
2022/12/27 01:18:12;;;;;;;4.37;1.63;;;;;;;;;;4997333;28;20210;-88
2022/12/27 01:20:40;;;;;;;4.73;1.77;;;;;;;;;;5015926;28;20222;-88
2022/12/27 01:23:09;;;;;;;6.83;2.10;;;;;;;;;;5015625;28;20265;-87
2022/12/27 01:25:38;;;;;;;6.03;2.60;;;;;;;;;;4989431;28;20200;-88
2022/12/27 01:28:07;;;;;;;6.27;2.87;;;;;;;;;;4991701;28;20246;-87
2022/12/27 01:30:35;;;;;;;1.20;1.20;;;;;;;;;;5004614;28;20206;-88
2022/12/27 01:33:03;;;;;;;9.40;3.43;;;;;;;;;;5000933;28;20301;-88
2022/12/27 01:35:32;;;;;;;8.50;2.67;;;;;;;;;;5022840;28;20199;-88
2022/12/27 01:38:00;;;;;;;4.53;1.37;;;;;;;;;;5002144;28;21294;-88
2022/12/27 01:40:29;;;;;;;10.13;3.27;;;;;;;;;;5033786;28;20260;-87
2022/12/27 01:42:57;;;;;;;10.77;4.53;;;;;;;;;;5019983;28;20211;-88
2022/12/27 01:45:28;;;;;;;3.77;1.73;;;;;;;;;;5005263;28;20204;-88
2022/12/27 01:47:59;;;;;;;11.23;2.83;;;;;;;;;;5001336;28;20238;-88
2022/12/27 01:50:31;;;;;;;8.03;3.10;;;;;;;;;;5015602;28;20203;-88
2022/12/27 01:53:03;;;;;;;10.03;2.30;;;;;;;;;;4983527;28;20192;-88
2022/12/27 01:55:33;;;;;;;8.50;2.73;;;;;;;;;;5009030;28;20206;-87
2022/12/27 01:58:04;;;;;;;11.03;2.27;;;;;;;;;;4993443;28;20211;-88
2022/12/27 02:00:34;;;;;;;3.63;1.97;;;;;;;;;;5003929;28;20214;-88
2022/12/27 02:03:03;;;;;;;7.43;2.90;;;;;;;;;;5004585;28;20246;-88
2022/12/27 02:05:31;;;;;;;6.23;2.57;;;;;;;;;;5000494;28;20210;-88
2022/12/27 02:08:06;;;;;;;9.70;3.60;;;;;;;;;;5013624;28;20207;-88
2022/12/27 02:10:34;;;;;;;7.13;2.10;;;;;;;;;;4996638;28;20283;-88
2022/12/27 02:13:05;;;;;;;4.33;2.53;;;;;;;;;;5007554;28;20191;-88
2022/12/27 02:15:35;;;;;;;9.37;2.83;;;;;;;;;;5009925;28;20226;-88
2022/12/27 02:18:03;;;;;;;3.03;1.57;;;;;;;;;;4996692;28;20258;-88
2022/12/27 02:20:36;;;;;;;4.57;1.73;;;;;;;;;;4996362;28;20216;-87
2022/12/27 02:26:26;;;;;;;10.93;2.50;;;;;;;;;;4979460;28;20215;-88
2022/12/27 02:29:07;;;;;;;5.13;2.27;;;;;;;;;;4994448;28;20202;-88
2022/12/27 02:31:39;;;;;;;10.47;3.23;;;;;;;;;;5010823;28;20219;-88
2022/12/27 02:34:11;;;;;;;5.67;2.10;;;;;;;;;;4995887;28;20254;-88
2022/12/27 02:36:40;;;;;;;1.40;1.30;;;;;;;;;;5001725;28;20249;-88
2022/12/27 02:39:09;;;;;;;6.97;3.03;;;;;;;;;;5002485;28;20210;-88
2022/12/27 02:53:07;;;;;;;9.80;3.30;;;;;;;;;;4997544;28;20196;-88
2022/12/27 02:57:07;;;;;;;8.80;3.57;;;;;;;;;;4996206;28;20203;-88
2022/12/27 02:58:35;;;;;;;4.37;2.07;;;;;;;;;;5015256;28;20198;-89
2022/12/27 03:04:02;;;;;;;3.17;1.90;;;;;;;;;;4998598;28;20223;-88
2022/12/27 03:06:42;;;;;;;3.23;2.93;;;;;;;;;;5012359;28;20203;-89
2022/12/27 03:18:04;;;;;;;4.57;1.60;;;;;;;;;;4995497;28;20200;-88
2022/12/27 03:26:06;;;;;;;6.77;2.43;;;;;;;;;;5016379;28;20230;-88
2022/12/27 03:34:31;;;;;;;7.10;2.13;;;;;;;;;;5006953;28;20191;-88
2022/12/27 03:39:49;;;;;;;9.93;3.93;;;;;;;;;;5000263;28;20199;-88
2022/12/27 03:45:08;;;;;;;3.40;1.77;;;;;;;;;;4986599;28;20294;-88
2022/12/27 03:47:37;;;;;;;10.50;2.90;;;;;;;;;;5001681;28;20241;-89
2022/12/27 03:50:09;;;;;;;8.03;3.53;;;;;;;;;;4998003;28;20215;-88
2022/12/27 03:52:43;;;;;;;6.43;2.20;;;;;;;;;;4998235;28;20191;-88
2022/12/27 03:55:12;;;;;;;7.00;1.93;;;;;;;;;;5002876;28;20219;-88
2022/12/27 03:57:41;;;;;;;1.70;1.27;;;;;;;;;;5017932;28;20199;-88
2022/12/27 04:00:10;;;;;;;9.40;2.67;;;;;;;;;;5000930;28;20215;-88
2022/12/27 04:02:39;;;;;;;6.47;2.60;;;;;;;;;;5006849;28;20271;-88
2022/12/27 04:05:10;;;;;;;15.30;4.03;;;;;;;;;;4988406;28;20222;-88
2022/12/27 04:07:38;;;;;;;6.30;1.53;;;;;;;;;;4995688;28;20210;-88
2022/12/27 04:35:01;;;;;;;8.03;2.93;;;;;;;;;;5033869;28;20268;-87
2022/12/27 04:37:30;;;;;;;8.47;3.10;;;;;;;;;;4994120;28;20243;-88
2022/12/27 04:56:36;;;;;;;6.17;3.23;;;;;;;;;;4985455;28;20232;-88
2022/12/27 05:02:03;;;;;;;2.90;1.87;;;;;;;;;;4991326;28;20202;-88
2022/12/27 05:04:32;;;;;;;9.93;3.70;;;;;;;;;;5031338;28;20233;-88
2022/12/27 05:13:58;;;;;;;5.23;2.07;;;;;;;;;;4997394;28;20294;-88
2022/12/27 05:15:23;;;;;;;11.20;3.30;;;;;;;;;;5033814;28;20206;-88
2022/12/27 05:17:51;;;;;;;7.87;2.67;;;;;;;;;;5010898;28;20195;-88
2022/12/27 05:20:19;;;;;;;8.87;1.63;;;;;;;;;;4997039;28;20204;-88
2022/12/27 05:25:36;;;;;;;9.57;3.60;;;;;;;;;;5001336;28;20258;-88
2022/12/27 05:28:06;;;;;;;3.33;2.77;;;;;;;;;;4993221;28;20220;-88
2022/12/27 05:30:35;;;;;;;5.40;2.00;;;;;;;;;;5010512;28;20271;-88
2022/12/27 05:33:04;;;;;;;5.30;1.70;;;;;;;;;;5006187;28;20226;-88
2022/12/27 05:35:33;;;;;;;4.43;1.80;;;;;;;;;;4999535;28;20203;-88
2022/12/27 05:38:01;;;;;;;8.47;2.23;;;;;;;;;;4996279;28;20287;-88
2022/12/27 05:40:30;;;;;;;8.50;2.30;;;;;;;;;;5000730;28;20298;-88
2022/12/27 05:43:00;;;;;;;11.93;2.13;;;;;;;;;;5004643;28;20207;-88
2022/12/27 05:45:29;;;;;;;5.70;2.67;;;;;;;;;;4996678;28;20215;-88
2022/12/27 05:47:58;;;;;;;5.37;1.67;;;;;;;;;;4996464;28;20218;-88
2022/12/27 05:50:27;;;;;;;3.70;2.47;;;;;;;;;;5002421;28;20203;-88
2022/12/27 05:52:56;;;;;;;6.60;1.90;;;;;;;;;;5003241;28;20204;-87
2022/12/27 05:55:24;;;;;;;9.87;3.43;;;;;;;;;;5003268;28;20194;-88
2022/12/27 05:57:53;;;;;;;8.43;1.67;;;;;;;;;;5002797;28;20187;-88
2022/12/27 06:00:23;;;;;;;5.73;1.43;;;;;;;;;;5009165;28;20200;-89
2022/12/27 06:02:51;;;;;;;8.90;1.67;;;;;;;;;;5013736;28;20275;-88
2022/12/27 06:05:20;;;;;;;7.87;2.50;;;;;;;;;;5016012;28;20261;-88
2022/12/27 06:07:48;;;;;;;10.77;2.67;;;;;;;;;;5011882;28;20204;-88
2022/12/27 06:10:16;;;;;;;4.13;1.70;;;;;;;;;;5005333;28;20203;-87
2022/12/27 06:12:45;;;;;;;3.20;1.57;;;;;;;;;;5015947;28;20204;-89
2022/12/27 06:15:13;;;;;;;13.23;3.90;;;;;;;;;;4996032;28;20204;-88
2022/12/27 06:17:43;;;;;;;1.57;1.13;;;;;;;;;;5017583;28;20202;-88
2022/12/27 06:20:11;;;;;;;1.73;1.63;;;;;;;;;;5022562;28;20203;-88
2022/12/27 06:22:40;;;;;;;1.37;1.33;;;;;;;;;;5000398;28;20195;-88
2022/12/27 06:25:08;;;;;;;3.53;1.77;;;;;;;;;;5015584;28;20222;-88
2022/12/27 06:27:41;;;;;;;4.90;1.77;;;;;;;;;;5013536;28;20227;-88
2022/12/27 06:30:11;;;;;;;7.43;2.67;;;;;;;;;;4996325;28;20258;-88
2022/12/27 06:32:39;;;;;;;3.70;2.00;;;;;;;;;;5015059;28;20238;-88
2022/12/27 06:35:10;;;;;;;11.70;3.23;;;;;;;;;;5015289;28;20210;-86
2022/12/27 06:37:38;;;;;;;13.50;2.03;;;;;;;;;;5025994;28;20254;-88
2022/12/27 06:40:07;;;;;;;6.97;2.50;;;;;;;;;;4998595;28;20328;-88
2022/12/27 06:42:35;;;;;;;6.27;1.50;;;;;;;;;;5000196;28;20207;-88
2022/12/27 06:45:05;;;;;;;3.80;1.73;;;;;;;;;;4999632;28;20235;-88
2022/12/27 06:47:33;;;;;;;5.23;1.83;;;;;;;;;;5009217;28;20199;-86
2022/12/27 06:50:02;;;;;;;6.07;1.43;;;;;;;;;;5012286;28;20210;-89
2022/12/27 06:52:31;;;;;;;5.63;1.73;;;;;;;;;;5017307;28;20210;-89
2022/12/27 06:55:00;;;;;;;6.33;2.23;;;;;;;;;;5017927;28;20206;-88
2022/12/27 06:57:28;;;;;;;10.63;2.70;;;;;;;;;;5003727;28;20278;-89
2022/12/27 06:59:57;;;;;;;7.10;2.53;;;;;;;;;;5016560;28;20210;-89
2022/12/27 07:02:25;;;;;;;3.03;1.17;;;;;;;;;;5019022;28;20203;-89
2022/12/27 07:04:54;;;;;;;8.53;1.67;;;;;;;;;;5000113;28;20215;-88
2022/12/27 07:07:22;;;;;;;8.60;1.63;;;;;;;;;;4987108;28;20207;-89
2022/12/27 07:09:52;;;;;;;1.70;1.50;;;;;;;;;;4986291;28;20214;-89
2022/12/27 07:12:20;;;;;;;3.77;1.43;;;;;;;;;;5017188;28;20222;-88
2022/12/27 07:14:48;;;;;;;7.87;2.90;;;;;;;;;;5018874;28;20183;-88
2022/12/27 07:17:17;;;;;;;5.03;2.20;;;;;;;;;;5004846;28;20223;-88
2022/12/27 07:19:47;;;;;;;3.40;1.90;;;;;;;;;;5018332;28;20191;-88
2022/12/27 07:22:15;;;;;;;8.63;2.00;;;;;;;;;;5017903;28;20203;-88
2022/12/27 07:24:43;;;;;;;11.80;3.20;;;;;;;;;;5026731;28;20191;-88
2022/12/27 07:27:14;;;;;;;1.40;1.27;;;;;;;;;;4998794;28;20213;-88
2022/12/27 07:29:42;;;;;;;5.60;2.70;;;;;;;;;;4989427;28;20240;-88
2022/12/27 07:32:13;;;;;;;6.63;2.07;;;;;;;;;;5009023;28;20326;-87
2022/12/27 07:34:41;;;;;;;1.73;1.67;;;;;;;;;;4988377;28;20291;-86
2022/12/27 07:37:10;;;;;;;5.73;1.50;;;;;;;;;;4996711;28;20203;-86
2022/12/27 07:39:39;;;;;;;11.13;1.57;;;;;;;;;;5027527;28;20195;-86
2022/12/27 07:42:07;;;;;;;8.63;2.53;;;;;;;;;;5004908;28;20293;-87
2022/12/27 07:44:37;;;;;;;1.70;1.00;;;;;;;;;;5017679;28;20203;-86
2022/12/27 07:47:06;;;;;;;2.57;1.87;;;;;;;;;;5016538;28;20378;-86
2022/12/27 07:49:34;;;;;;;1.87;1.53;;;;;;;;;;5004662;28;20210;-86
2022/12/27 07:52:03;;;;;;;6.67;3.37;;;;;;;;;;4987071;28;20213;-86
2022/12/27 07:54:31;;;;;;;4.40;3.90;;;;;;;;;;5010519;28;20199;-85
2022/12/27 07:57:00;;;;;;;7.77;3.37;;;;;;;;;;5003750;28;20188;-86
2022/12/27 07:59:28;;;;;;;4.17;1.57;;;;;;;;;;4999156;28;20239;-86
2022/12/27 08:02:04;;;;;;;2.30;1.70;;;;;;;;;;5027726;28;20211;-86
2022/12/27 08:04:34;;;;;;;1.57;1.20;;;;;;;;;;5000693;28;20215;-86
2022/12/27 08:07:03;;;;;;;4.27;1.33;;;;;;;;;;5010160;28;20218;-86
2022/12/27 08:09:32;;;;;;;5.80;2.53;;;;;;;;;;5004788;28;20241;-85
2022/12/27 08:12:01;;;;;;;3.07;1.77;;;;;;;;;;4997550;28;20204;-86
2022/12/27 08:14:30;;;;;;;1.70;1.13;;;;;;;;;;4978811;28;20252;-86
2022/12/27 08:17:06;;;;;;;2.97;1.47;;;;;;;;;;4978362;28;20196;-86
2022/12/27 08:19:34;;;;;;;1.90;1.10;;;;;;;;;;4990534;28;20198;-86
2022/12/27 08:22:04;;;;;;;7.83;2.60;;;;;;;;;;5017449;28;20206;-86
2022/12/27 08:24:32;;;;;;;0.70;0.70;;;;;;;;;;4991477;28;20203;-85
2022/12/27 08:27:01;;;;;;;2.20;1.00;;;;;;;;;;4990658;28;20247;-85
2022/12/27 08:29:29;;;;;;;1.10;1.10;;;;;;;;;;4986704;28;20286;-86
2022/12/27 08:31:59;;;;;;;3.80;2.83;;;;;;;;;;5011486;28;20229;-86
2022/12/27 08:34:28;;;;;;;1.53;1.43;;;;;;;;;;5009378;28;20242;-85
2022/12/27 08:36:56;;;;;;;1.77;1.30;;;;;;;;;;4997709;28;20263;-86
2022/12/27 08:39:25;;;;;;;1.03;1.00;;;;;;;;;;4997669;28;20196;-86
2022/12/27 08:41:53;;;;;;;3.87;1.20;;;;;;;;;;4998866;28;20210;-85
2022/12/27 08:44:22;;;;;;;1.20;1.20;;;;;;;;;;5006884;28;20229;-86
2022/12/27 08:46:51;;;;;;;6.90;1.97;;;;;;;;;;5013893;28;20211;-86
2022/12/27 08:49:21;;;;;;;1.13;1.10;;;;;;;;;;4987939;28;20211;-85
2022/12/27 08:51:49;;;;;;;2.20;1.23;;;;;;;;;;4999193;28;20202;-86
2022/12/27 08:54:18;;;;;;;3.80;2.30;;;;;;;;;;5005904;28;20216;-86
2022/12/27 08:56:46;;;;;;;12.00;1.20;;;;;;;;;;5015109;28;20187;-86
2022/12/27 08:59:15;;;;;;;4.67;2.43;;;;;;;;;;5005290;28;20211;-86
2022/12/27 09:01:43;;;;;;;2.00;1.67;;;;;;;;;;5002346;28;20249;-86
2022/12/27 09:04:12;;;;;;;2.80;1.67;;;;;;;;;;5004567;28;20298;-86
2022/12/27 09:06:42;;;;;;;2.50;1.73;;;;;;;;;;4990662;28;20315;-86
2022/12/27 09:09:10;;;;;;;4.23;1.80;;;;;;;;;;5005037;28;20198;-86
2022/12/27 09:11:39;;;;;;;2.00;1.20;;;;;;;;;;4997941;28;20211;-86
2022/12/27 09:14:08;;;;;;;2.50;1.53;;;;;;;;;;4997541;28;20257;-86
2022/12/27 09:16:36;;;;;;;2.90;2.33;;;;;;;;;;5005012;28;20191;-86
2022/12/27 09:19:05;;;;;;;2.07;1.30;;;;;;;;;;5002086;28;20211;-86
2022/12/27 09:21:35;;;;;;;3.13;1.20;;;;;;;;;;4997339;28;20257;-86
2022/12/27 09:24:06;;;;;;;1.60;1.47;;;;;;;;;;5010108;28;20207;-86
2022/12/27 09:26:34;;;;;;;4.13;0.90;;;;;;;;;;5014752;28;20251;-86
2022/12/27 09:29:03;;;;;;;6.73;2.10;;;;;;;;;;4999055;28;20217;-86
2022/12/27 09:31:31;;;;;;;3.67;1.60;;;;;;;;;;4977753;28;20228;-86
2022/12/27 09:34:00;;;;;;;1.20;1.13;;;;;;;;;;4994977;28;20231;-85
2022/12/27 09:36:29;;;;;;;5.10;1.53;;;;;;;;;;5008283;28;20203;-86
2022/12/27 09:38:59;;;;;;;2.93;1.60;;;;;;;;;;4991371;28;20216;-86
2022/12/27 09:41:41;;;;;;;2.23;0.90;;;;;;;;;;5002632;28;20195;-86
2022/12/27 09:44:36;;;;;;;0.70;0.70;;;;;;;;;;5000690;28;20205;-86
2022/12/27 09:47:07;;;;;;;3.80;1.07;;;;;;;;;;5009817;28;20242;-86
2022/12/27 09:49:37;;;;;;;3.03;1.63;;;;;;;;;;4997344;28;20234;-86
2022/12/27 09:52:08;;;;;;;1.80;1.53;;;;;;;;;;4984428;28;20204;-86
2022/12/27 09:54:39;;;;;;;4.60;1.10;;;;;;;;;;5009028;28;20203;-86
2022/12/27 09:57:14;;;;;;;3.40;1.10;;;;;;;;;;5008217;28;20199;-86
2022/12/27 09:59:49;;;;;;;1.47;0.97;;;;;;;;;;5009554;28;20207;-86
2022/12/27 10:02:20;;;;;;;2.57;1.17;;;;;;;;;;4996924;28;20207;-86
2022/12/27 10:04:49;;;;;;;1.23;1.17;;;;;;;;;;4988202;28;20250;-86
2022/12/27 10:07:43;;;;;;;1.70;1.60;;;;;;;;;;5001365;28;20274;-86
2022/12/27 10:10:18;;;;;;;2.00;1.27;;;;;;;;;;5023284;28;20261;-86
2022/12/27 10:13:01;;;;;;;4.90;1.27;;;;;;;;;;5012401;28;20232;-86
2022/12/27 10:15:31;;;;;;;2.47;1.77;;;;;;;;;;5012617;28;20341;-87
2022/12/27 10:18:07;;;;;;;1.13;1.13;;;;;;;;;;5017307;28;20193;-86
2022/12/27 10:20:46;;;;;;;2.80;1.67;;;;;;;;;;5013232;28;20194;-86
2022/12/27 10:23:17;;;;;;;0.80;0.80;;;;;;;;;;4997032;28;20210;-86
2022/12/27 10:25:47;;;;;;;1.30;1.20;;;;;;;;;;5014657;28;20292;-86
2022/12/27 10:28:18;;;;;;;2.57;1.57;;;;;;;;;;5008706;28;20222;-86
2022/12/27 10:30:46;;;;;;;3.30;1.30;;;;;;;;;;5018150;28;20211;-86
2022/12/27 10:33:20;;;;;;;1.33;1.30;;;;;;;;;;5007527;28;20280;-86
2022/12/27 10:35:49;;;;;;;7.33;1.20;;;;;;;;;;5000636;28;20195;-86
2022/12/27 10:38:17;;;;;;;3.40;2.20;;;;;;;;;;5000220;28;20198;-86
2022/12/27 10:40:51;;;;;;;6.13;1.50;;;;;;;;;;4996680;28;20221;-86
2022/12/27 10:43:24;;;;;;;3.50;1.93;;;;;;;;;;5007851;28;20232;-85
2022/12/27 10:45:53;;;;;;;1.10;1.10;;;;;;;;;;5009490;28;20195;-85
2022/12/27 10:48:22;;;;;;;3.00;1.63;;;;;;;;;;5003246;28;20454;-85
2022/12/27 10:50:54;;;;;;;2.77;1.33;;;;;;;;;;5000387;28;20197;-85
2022/12/27 10:53:40;;;;;;;2.40;1.30;;;;;;;;;;5003570;28;20259;-85
2022/12/27 10:56:11;;;;;;;3.07;1.00;;;;;;;;;;4995654;28;20198;-85
2022/12/27 10:58:43;;;;;;;3.00;2.53;;;;;;;;;;4986993;28;20208;-85
2022/12/27 11:01:23;;;;;;;1.80;1.23;;;;;;;;;;5012263;28;20215;-85
2022/12/27 11:03:52;;;;;;;2.20;1.97;;;;;;;;;;5009474;28;20203;-85
2022/12/27 11:06:22;;;;;;;4.87;1.53;;;;;;;;;;5018702;28;20207;-85
2022/12/27 11:08:51;;;;;;;5.07;2.23;;;;;;;;;;5016981;28;20228;-85
2022/12/27 11:11:21;;;;;;;6.43;2.23;;;;;;;;;;4999273;28;20209;-85
2022/12/27 11:13:51;;;;;;;7.03;1.50;;;;;;;;;;5028582;28;20197;-85
2022/12/27 11:16:25;;;;;;;8.87;3.40;;;;;;;;;;5017807;28;20204;-87
2022/12/27 11:18:54;;;;;;;6.17;2.57;;;;;;;;;;5004504;28;20211;-87
2022/12/27 11:21:23;;;;;;;9.27;2.53;;;;;;;;;;5017785;28;20208;-87
2022/12/27 11:23:57;;;;;;;8.97;3.83;;;;;;;;;;5004396;28;20211;-88
2022/12/27 11:26:27;;;;;;;10.80;2.67;;;;;;;;;;5007889;28;20200;-87
2022/12/27 11:28:59;;;;;;;2.00;1.90;;;;;;;;;;5016026;28;20216;-88
2022/12/27 11:31:31;;;;;;;10.53;1.87;;;;;;;;;;5024780;28;20216;-87
2022/12/27 11:34:00;;;;;;;9.00;3.00;;;;;;;;;;5015277;28;20268;-87
2022/12/27 11:36:30;;;;;;;4.07;2.27;;;;;;;;;;5017345;28;20253;-87
2022/12/27 11:38:59;;;;;;;3.63;2.07;;;;;;;;;;4999052;28;20204;-87
2022/12/27 11:41:33;;;;;;;5.80;2.23;;;;;;;;;;5029642;28;20204;-86
2022/12/27 11:44:06;;;;;;;4.43;1.90;;;;;;;;;;5018771;28;20208;-87
2022/12/27 11:46:39;;;;;;;3.13;1.67;;;;;;;;;;5004344;28;20277;-87
2022/12/27 11:49:10;;;;;;;5.90;2.03;;;;;;;;;;5000496;28;20208;-87
2022/12/27 11:51:47;;;;;;;5.07;2.67;;;;;;;;;;4998581;28;20231;-87
2022/12/27 11:54:31;;;;;;;4.83;2.10;;;;;;;;;;4999906;28;20231;-87
2022/12/27 11:57:07;;;;;;;4.23;3.83;;;;;;;;;;5016313;28;20208;-88
2022/12/27 11:59:45;;;;;;;10.80;2.80;;;;;;;;;;4997383;28;20219;-88
2022/12/27 12:02:26;;;;;;;3.60;1.97;;;;;;;;;;4998302;28;20211;-88
2022/12/27 12:05:03;;;;;;;10.43;3.63;;;;;;;;;;5003647;28;20200;-88
2022/12/27 12:07:43;;;;;;;17.00;3.80;;;;;;;;;;5035354;28;20234;-87
2022/12/27 12:10:17;;;;;;;18.27;3.10;;;;;;;;;;5006377;28;20228;-88
2022/12/27 12:13:01;;;;;;;9.37;2.87;;;;;;;;;;5011027;28;20222;-88
2022/12/27 12:15:54;;;;;;;7.90;2.63;;;;;;;;;;4995393;28;20200;-88
2022/12/27 12:18:34;;;;;;;15.93;3.63;;;;;;;;;;4988557;28;20205;-88
2022/12/27 12:21:16;;;;;;;9.27;3.37;;;;;;;;;;5019423;28;20199;-88
2022/12/27 12:23:55;;;;;;;9.37;3.90;;;;;;;;;;5016979;28;20208;-87
2022/12/27 12:26:24;;;;;;;8.30;2.17;;;;;;;;;;5012304;28;20218;-88
2022/12/27 12:29:05;;;;;;;8.73;3.40;;;;;;;;;;5006932;28;20216;-87
2022/12/27 12:31:50;;;;;;;2.30;1.40;;;;;;;;;;5009690;28;20231;-87
2022/12/27 12:34:27;;;;;;;9.17;3.10;;;;;;;;;;4985689;28;20208;-88
2022/12/27 12:37:04;;;;;;;9.53;3.33;;;;;;;;;;4999159;28;20203;-87
2022/12/27 12:39:45;;;;;;;2.73;2.43;;;;;;;;;;5015333;28;20198;-86
2022/12/27 12:42:21;;;;;;;4.63;2.60;;;;;;;;;;5004539;28;20209;-88
2022/12/27 12:44:59;;;;;;;9.70;4.63;;;;;;;;;;4991455;28;20208;-86
2022/12/27 12:47:39;;;;;;;9.77;3.50;;;;;;;;;;4982987;28;20287;-86
2022/12/27 12:50:18;;;;;;;34.07;4.00;;;;;;;;;;4998462;28;20210;-87
2022/12/27 12:52:54;;;;;;;6.13;2.50;;;;;;;;;;5022171;28;20262;-85
2022/12/27 12:55:30;;;;;;;5.60;2.53;;;;;;;;;;5003159;28;20207;-85
2022/12/27 12:58:15;;;;;;;4.80;1.97;;;;;;;;;;4999113;28;20321;-87
2022/12/27 13:00:48;;;;;;;10.23;4.97;;;;;;;;;;4999927;28;20198;-87
2022/12/27 13:03:35;;;;;;;6.17;3.10;;;;;;;;;;5003359;28;20484;-87
2022/12/27 13:06:14;;;;;;;22.10;7.33;;;;;;;;;;5001523;28;20249;-87
2022/12/27 13:08:45;;;;;;;6.80;4.23;;;;;;;;;;4997602;28;20269;-88
2022/12/27 13:11:23;;;;;;;14.53;6.03;;;;;;;;;;4996497;28;20200;-87
2022/12/27 13:14:02;;;;;;;10.50;4.57;;;;;;;;;;4994549;28;20204;-87
2022/12/27 13:16:35;;;;;;;8.77;2.97;;;;;;;;;;4985188;28;20223;-87
2022/12/27 13:19:13;;;;;;;13.70;4.00;;;;;;;;;;4999113;28;20254;-87
2022/12/27 13:21:52;;;;;;;11.43;3.77;;;;;;;;;;5006321;28;20200;-88
2022/12/27 13:24:24;;;;;;;3.13;2.13;;;;;;;;;;5031995;28;20215;-87
2022/12/27 13:27:01;;;;;;;11.03;4.67;;;;;;;;;;5002852;28;20219;-87
2022/12/27 13:29:42;;;;;;;14.80;4.83;;;;;;;;;;4996453;28;20215;-87
2022/12/27 13:32:16;;;;;;;7.90;3.70;;;;;;;;;;4992970;28;20287;-88
2022/12/27 13:34:51;;;;;;;5.07;2.70;;;;;;;;;;4984895;28;20209;-87
2022/12/27 13:37:26;;;;;;;11.77;4.20;;;;;;;;;;5013595;28;20198;-87
2022/12/27 13:40:06;;;;;;;16.27;4.57;;;;;;;;;;5015567;28;20211;-86
2022/12/27 13:42:48;;;;;;;9.97;3.43;;;;;;;;;;4985562;28;20214;-87
2022/12/27 13:45:22;;;;;;;7.27;2.83;;;;;;;;;;5009348;28;20206;-87
2022/12/27 13:47:59;;;;;;;1.37;1.30;;;;;;;;;;4996255;28;20209;-87
2022/12/27 13:50:45;;;;;;;8.17;3.40;;;;;;;;;;4984077;28;20225;-88
2022/12/27 13:53:22;;;;;;;8.47;3.47;;;;;;;;;;4983451;28;20253;-88
2022/12/27 13:55:56;;;;;;;4.83;3.03;;;;;;;;;;4986008;28;20270;-88
2022/12/27 13:58:35;;;;;;;17.53;4.37;;;;;;;;;;4992382;28;20272;-87
2022/12/27 14:01:10;;;;;;;6.97;1.93;;;;;;;;;;4994336;28;20236;-88
2022/12/27 14:03:44;;;;;;;13.27;4.60;;;;;;;;;;5004575;28;20212;-88
2022/12/27 14:06:18;;;;;;;11.23;3.00;;;;;;;;;;4979750;28;20200;-88
2022/12/27 14:09:01;;;;;;;15.57;6.63;;;;;;;;;;5013787;28;20526;-87
2022/12/27 14:11:39;;;;;;;3.77;2.23;;;;;;;;;;4988589;28;20262;-87
2022/12/27 14:14:10;;;;;;;11.90;3.67;;;;;;;;;;5009730;28;20200;-87
2022/12/27 14:16:47;;;;;;;8.97;3.70;;;;;;;;;;5007159;28;20246;-87
2022/12/27 14:19:25;;;;;;;6.93;2.87;;;;;;;;;;5029788;28;20260;-87
2022/12/27 14:22:16;;;;;;;9.03;2.50;;;;;;;;;;5004317;28;20228;-87
2022/12/27 14:25:03;;;;;;;10.10;3.13;;;;;;;;;;4985222;28;20208;-88
2022/12/27 14:27:49;;;;;;;10.27;4.50;;;;;;;;;;4969958;28;20287;-87
2022/12/27 14:30:38;;;;;;;8.70;4.27;;;;;;;;;;5014083;28;20218;-86
2022/12/27 14:33:30;;;;;;;11.43;5.50;;;;;;;;;;4986975;28;20275;-86
2022/12/27 14:36:09;;;;;;;7.93;4.37;;;;;;;;;;4991576;28;20215;-87
2022/12/27 14:38:54;;;;;;;8.70;5.30;;;;;;;;;;5032776;28;20195;-86
2022/12/27 14:41:30;;;;;;;8.97;5.57;;;;;;;;;;5032762;28;20269;-87
2022/12/27 14:44:10;;;;;;;19.80;4.33;;;;;;;;;;4983000;28;20226;-87
2022/12/27 14:47:00;;;;;;;17.67;5.97;;;;;;;;;;5008967;28;20204;-86
2022/12/27 14:49:48;;;;;;;8.40;4.57;;;;;;;;;;5007717;28;20215;-87
2022/12/27 14:52:41;;;;;;;7.20;5.43;;;;;;;;;;5001472;28;20200;-87
2022/12/27 14:55:26;;;;;;;9.00;5.10;;;;;;;;;;5009097;28;20207;-86
2022/12/27 14:58:03;;;;;;;9.40;4.53;;;;;;;;;;4997686;28;20219;-86
2022/12/27 15:00:48;;;;;;;6.53;4.57;;;;;;;;;;5016308;28;20196;-86
2022/12/27 15:03:21;;;;;;;10.53;5.20;;;;;;;;;;5000500;28;20242;-87
2022/12/27 15:06:02;;;;;;;6.50;5.30;;;;;;;;;;5000216;28;20203;-87
2022/12/27 15:08:43;;;;;;;7.07;4.03;;;;;;;;;;4999638;28;20204;-85
2022/12/27 15:11:19;;;;;;;7.47;4.73;;;;;;;;;;4983147;28;20207;-87
2022/12/27 15:13:55;;;;;;;6.50;4.33;;;;;;;;;;5009796;28;20207;-87
2022/12/27 15:16:28;;;;;;;4.17;3.33;;;;;;;;;;5012023;28;20261;-87
2022/12/27 15:19:04;;;;;;;6.07;3.03;;;;;;;;;;5013563;28;20203;-87
2022/12/27 15:21:44;;;;;;;3.80;2.43;;;;;;;;;;4999537;28;20209;-86
2022/12/27 15:24:22;;;;;;;11.10;3.63;;;;;;;;;;5013184;28;20193;-88
2022/12/27 15:26:52;;;;;;;7.07;3.30;;;;;;;;;;5012073;28;20211;-87
2022/12/27 15:29:27;;;;;;;7.03;3.67;;;;;;;;;;5011180;28;20224;-88
2022/12/27 15:32:01;;;;;;;7.07;4.23;;;;;;;;;;4998719;28;20226;-87
2022/12/27 15:34:37;;;;;;;7.03;5.40;;;;;;;;;;4999279;28;20266;-88
2022/12/27 15:37:06;;;;;;;7.90;5.17;;;;;;;;;;5016222;28;20208;-88
2022/12/27 15:39:52;;;;;;;6.17;5.50;;;;;;;;;;4998752;28;20191;-87
2022/12/27 15:42:48;;;;;;;7.77;5.50;;;;;;;;;;5005304;28;20253;-87
2022/12/27 15:45:26;;;;;;;9.13;6.10;;;;;;;;;;4989770;28;20208;-88
2022/12/27 15:48:08;;;;;;;6.73;6.03;;;;;;;;;;5016247;28;20204;-87
2022/12/27 15:50:41;;;;;;;8.00;6.43;;;;;;;;;;5002008;28;20235;-87
2022/12/27 15:53:19;;;;;;;10.17;8.40;;;;;;;;;;5010035;28;20225;-87
2022/12/27 15:56:12;;;;;;;11.47;9.23;;;;;;;;;;4998942;28;20199;-87
2022/12/27 15:58:40;;;;;;;10.10;8.60;;;;;;;;;;4980211;28;20195;-88
2022/12/27 16:01:27;;;;;;;10.63;9.07;;;;;;;;;;5020751;28;20200;-88
2022/12/27 16:03:58;;;;;;;12.93;10.50;;;;;;;;;;4988422;28;20275;-89
2022/12/27 16:06:48;;;;;;;12.60;10.80;;;;;;;;;;5001361;28;20195;-88
2022/12/27 16:09:32;;;;;;;11.83;10.60;;;;;;;;;;5017767;28;20198;-88
2022/12/27 16:12:02;;;;;;;12.37;11.10;;;;;;;;;;4996798;28;20200;-87
2022/12/27 16:14:32;;;;;;;12.93;11.50;;;;;;;;;;5000663;28;20202;-86
2022/12/27 16:17:09;;;;;;;12.03;10.90;;;;;;;;;;5006524;28;20242;-87
2022/12/27 16:19:56;;;;;;;13.80;12.53;;;;;;;;;;5017580;28;20203;-87
2022/12/27 16:22:28;;;;;;;13.40;9.50;;;;;;;;;;5020471;28;20222;-87
2022/12/27 16:24:57;;;;;;;11.60;7.90;;;;;;;;;;5007779;28;20211;-87
2022/12/27 16:27:29;;;;;;;14.03;10.30;;;;;;;;;;4981443;28;20204;-87
2022/12/27 16:29:58;;;;;;;13.13;11.47;;;;;;;;;;5001259;28;20421;-87
2022/12/27 16:32:29;;;;;;;16.13;10.27;;;;;;;;;;5011206;28;20235;-87
2022/12/27 16:35:13;;;;;;;14.67;13.17;;;;;;;;;;5027034;28;20257;-87
2022/12/27 16:37:42;;;;;;;11.07;7.90;;;;;;;;;;5004242;28;20219;-87
2022/12/27 16:40:28;;;;;;;16.17;11.37;;;;;;;;;;4997724;28;20226;-87
2022/12/27 16:43:20;;;;;;;9.33;8.43;;;;;;;;;;4985042;28;20234;-87
2022/12/27 16:45:51;;;;;;;11.97;10.43;;;;;;;;;;5004850;28;20211;-86
2022/12/27 16:48:24;;;;;;;11.73;9.63;;;;;;;;;;5025132;28;20255;-87
2022/12/27 16:51:04;;;;;;;14.93;12.67;;;;;;;;;;4999261;28;20249;-87